Time;durP1;ratioP1;P1;durP2;ratioP2;P2;SDS_P1;SDS_P2;PMS_P1;PMS_P2;Temp;Humidity;BMP_temperature;BMP_pressure;BME280_temperature;BME280_humidity;BME280_pressure;Samples;Min_cycle;Max_cycle;Signal;HPM_P1;HPM_P2
2022/04/21 00:00:47;;;;;;;9.15;3.47;;;;;;;8.12;72.75;100657.63;5056294;28;20458;-62
2022/04/21 00:03:14;;;;;;;8.55;3.47;;;;;;;8.16;72.58;100660.97;5066209;28;20059;-61
2022/04/21 00:05:41;;;;;;;7.78;3.92;;;;;;;8.13;72.82;100654.91;5072705;22;20045;-82
2022/04/21 00:08:09;;;;;;;12.90;4.18;;;;;;;8.12;72.42;100663.72;5047348;28;20058;-80
2022/04/21 00:10:37;;;;;;;8.15;3.45;;;;;;;8.09;73.06;100663.84;5043400;28;20135;-79
2022/04/21 00:13:05;;;;;;;9.32;3.30;;;;;;;8.13;72.97;100661.94;5059761;28;20048;-80
2022/04/21 00:15:32;;;;;;;8.35;3.45;;;;;;;8.09;73.76;100660.38;5073134;28;20064;-79
2022/04/21 00:18:00;;;;;;;8.30;3.28;;;;;;;8.07;73.79;100657.84;5054293;28;20056;-80
2022/04/21 00:20:27;;;;;;;8.32;3.30;;;;;;;8.07;73.96;100657.00;5043579;28;20679;-80
2022/04/21 00:25:40;;;;;;;7.63;3.25;;;;;;;8.07;73.54;100659.63;5057162;28;20154;-82
2022/04/21 00:28:07;;;;;;;12.57;3.65;;;;;;;8.07;73.88;100657.84;5080035;28;20154;-80
2022/04/21 00:30:34;;;;;;;8.55;3.88;;;;;;;8.02;74.78;100656.38;5055633;28;20051;-79
2022/04/21 00:33:02;;;;;;;10.45;3.60;;;;;;;7.99;74.46;100646.88;5041861;28;20055;-79
2022/04/21 00:35:29;;;;;;;11.68;3.75;;;;;;;7.96;75.11;100657.50;5030570;28;20079;-79
2022/04/21 00:37:57;;;;;;;10.60;3.75;;;;;;;7.99;74.54;100653.91;5060596;28;20048;-79
2022/04/21 00:40:29;;;;;;;12.73;3.83;;;;;;;7.98;75.16;100658.28;5041778;28;20112;-80
2022/04/21 00:42:57;;;;;;;8.30;3.50;;;;;;;7.95;75.17;100655.81;5057386;28;20407;-79
2022/04/21 00:45:25;;;;;;;9.40;3.70;;;;;;;7.91;75.99;100654.25;5077741;28;20143;-79
2022/04/21 00:47:54;;;;;;;9.10;3.20;;;;;;;7.87;75.59;100648.31;5081529;28;20108;-79
2022/04/21 00:50:28;;;;;;;6.70;3.30;;;;;;;7.86;75.95;100641.38;5056258;28;20052;-79
2022/04/21 00:52:56;;;;;;;10.25;3.42;;;;;;;7.84;76.16;100635.34;5036625;28;20071;-79
2022/04/21 00:55:24;;;;;;;10.82;3.85;;;;;;;7.80;76.23;100639.03;5037295;28;20055;-79
2022/04/21 00:57:53;;;;;;;7.82;3.17;;;;;;;7.75;76.92;100648.91;5044405;28;20056;-81
2022/04/21 01:00:22;;;;;;;12.35;4.20;;;;;;;7.73;77.06;100649.88;5024298;28;20064;-80
2022/04/21 01:02:49;;;;;;;10.93;4.03;;;;;;;7.77;76.91;100648.81;5027935;28;20048;-80
2022/04/21 01:05:26;;;;;;;13.02;4.35;;;;;;;7.69;77.87;100635.22;5035479;28;20049;-80
2022/04/21 01:07:54;;;;;;;9.20;3.28;;;;;;;7.60;77.97;100637.34;5037874;28;20071;-80
2022/04/21 01:10:24;;;;;;;9.60;3.97;;;;;;;7.57;78.31;100632.25;5073943;28;20120;-80
2022/04/21 01:12:52;;;;;;;15.00;3.67;;;;;;;7.58;78.29;100633.09;5044770;28;20063;-80
2022/04/21 01:15:19;;;;;;;9.00;3.63;;;;;;;7.51;79.25;100635.16;5058346;28;20044;-79
2022/04/21 01:17:46;;;;;;;12.00;4.47;;;;;;;7.54;79.47;100632.41;5052406;28;20051;-77
2022/04/21 01:20:15;;;;;;;13.48;3.85;;;;;;;7.53;79.42;100627.22;5061968;28;20048;-80
2022/04/21 01:22:43;;;;;;;8.68;3.55;;;;;;;7.51;79.62;100621.19;5063283;28;20072;-78
2022/04/21 01:25:11;;;;;;;12.18;4.05;;;;;;;7.53;79.87;100627.22;5044141;28;20239;-80
2022/04/21 01:27:38;;;;;;;14.93;4.63;;;;;;;7.54;80.11;100623.69;5042076;28;20453;-81
2022/04/21 01:30:08;;;;;;;12.32;3.78;;;;;;;7.51;79.91;100634.28;5063135;28;20056;-79
2022/04/21 01:32:36;;;;;;;8.20;3.28;;;;;;;7.49;79.99;100641.41;5042293;28;20047;-80
2022/04/21 01:35:05;;;;;;;9.88;3.88;;;;;;;7.56;80.30;100638.41;5079961;28;20053;-80
2022/04/21 01:43:05;;;;;;;9.38;4.03;;;;;;;7.45;81.22;100638.06;5047933;28;19920;-81
2022/04/21 01:45:33;;;;;;;9.65;4.22;;;;;;;7.38;81.68;100639.25;5078239;28;20068;-80
2022/04/21 01:48:00;;;;;;;12.27;3.80;;;;;;;7.36;81.80;100634.09;5044619;28;20135;-81
2022/04/21 01:50:27;;;;;;;13.77;4.95;;;;;;;7.39;82.68;100635.72;5076441;28;20071;-80
2022/04/21 01:52:56;;;;;;;7.05;3.80;;;;;;;7.44;81.84;100630.28;5080072;28;20052;-80
2022/04/21 01:55:25;;;;;;;14.73;4.03;;;;;;;7.47;82.05;100630.97;5042991;28;20083;-81
2022/04/21 01:57:52;;;;;;;12.32;3.80;;;;;;;7.54;81.78;100634.16;5078255;28;20424;-79
2022/04/21 02:00:20;;;;;;;8.85;4.25;;;;;;;7.57;81.68;100626.19;5061058;28;20045;-80
2022/04/21 02:02:47;;;;;;;10.55;3.97;;;;;;;7.56;81.91;100612.19;5047439;28;20112;-79
2022/04/21 02:05:15;;;;;;;12.95;4.05;;;;;;;7.53;81.85;100611.53;5071948;28;20041;-80
2022/04/21 02:07:46;;;;;;;10.77;4.22;;;;;;;7.48;82.02;100605.66;5063192;28;20053;-80
2022/04/21 02:10:16;;;;;;;10.60;4.22;;;;;;;7.45;82.66;100611.03;5043484;28;20071;-79
2022/04/21 02:12:43;;;;;;;9.48;4.43;;;;;;;7.42;82.52;100604.13;5042192;28;20049;-79
2022/04/21 02:15:10;;;;;;;11.05;4.20;;;;;;;7.44;83.41;100609.31;5063788;28;20559;-80
2022/04/21 02:21:26;;;;;;;11.93;4.30;;;;;;;7.40;84.18;100611.22;5062073;28;20395;-80
2022/04/21 02:23:53;;;;;;;16.38;4.00;;;;;;;7.37;84.38;100616.59;5043870;28;20468;-81
2022/04/21 02:26:20;;;;;;;12.85;4.60;;;;;;;7.45;84.38;100606.63;5045011;28;20098;-80
2022/04/21 02:28:47;;;;;;;7.82;4.10;;;;;;;7.39;84.26;100599.06;5060232;28;20068;-79
2022/04/21 02:31:14;;;;;;;9.30;4.10;;;;;;;7.45;84.79;100595.31;5052055;28;20051;-78
2022/04/21 02:33:42;;;;;;;15.40;4.15;;;;;;;7.42;84.40;100593.66;5076531;28;20100;-79
2022/04/21 02:36:09;;;;;;;22.70;5.07;;;;;;;7.42;84.42;100588.41;5070793;28;20066;-81
2022/04/21 02:38:38;;;;;;;15.73;4.28;;;;;;;7.45;84.00;100588.28;5061279;28;20046;-77
2022/04/21 02:41:06;;;;;;;12.43;3.92;;;;;;;7.51;84.29;100582.75;5057931;28;20121;-78
2022/04/21 02:43:33;;;;;;;9.20;3.58;;;;;;;7.47;83.80;100581.19;5084781;28;20040;-79
2022/04/21 02:46:01;;;;;;;8.85;3.88;;;;;;;7.41;84.14;100578.88;5080724;28;20052;-80
2022/04/21 02:48:29;;;;;;;10.80;4.32;;;;;;;7.37;84.19;100593.03;5040423;28;20535;-80
2022/04/21 02:50:56;;;;;;;7.93;4.07;;;;;;;7.38;84.17;100588.63;5056420;28;20451;-80
2022/04/21 02:57:20;;;;;;;8.05;3.50;;;;;;;7.38;84.50;100580.78;5033801;28;20047;-80
2022/04/21 02:59:00;;;;;;;11.68;4.68;;;;;;;7.37;84.42;100585.16;5048646;28;20066;-79
2022/04/21 03:01:27;;;;;;;12.73;4.95;;;;;;;7.34;84.91;100580.94;5056776;28;20231;-80
2022/04/21 03:03:55;;;;;;;19.77;4.93;;;;;;;7.40;84.56;100589.44;5041041;28;20098;-80
2022/04/21 03:06:22;;;;;;;8.52;3.72;;;;;;;7.33;84.82;100594.09;5059391;28;20120;-80
2022/04/21 03:08:49;;;;;;;19.73;4.80;;;;;;;7.28;85.28;100575.97;5075756;28;20052;-80
2022/04/21 03:11:17;;;;;;;11.30;4.10;;;;;;;7.25;85.31;100590.97;5045212;28;20058;-80
2022/04/21 03:13:44;;;;;;;10.15;3.75;;;;;;;7.26;86.20;100590.06;5044176;28;20041;-80
2022/04/21 03:16:11;;;;;;;10.68;4.13;;;;;;;7.26;85.64;100584.84;5042865;28;20041;-79
2022/04/21 03:18:38;;;;;;;16.75;4.60;;;;;;;7.23;86.05;100590.19;5058740;28;20095;-78
2022/04/21 03:26:38;;;;;;;12.00;3.95;;;;;;;7.19;86.30;100586.00;5042852;28;20067;-81
2022/04/21 03:29:06;;;;;;;14.30;4.30;;;;;;;7.23;86.11;100584.97;5060073;28;20083;-81
2022/04/21 03:31:33;;;;;;;13.45;4.43;;;;;;;7.19;86.23;100578.16;5044398;28;20059;-79
2022/04/21 03:34:02;;;;;;;13.38;4.25;;;;;;;7.22;86.71;100586.72;5021057;28;20258;-79
2022/04/21 03:36:30;;;;;;;10.98;4.00;;;;;;;7.27;86.20;100590.00;5041225;28;20398;-80
2022/04/21 03:38:58;;;;;;;12.85;4.15;;;;;;;7.29;86.12;100592.53;5043735;28;20040;-80
2022/04/21 03:41:25;;;;;;;20.10;5.25;;;;;;;7.24;86.32;100589.28;5038031;28;20519;-78
2022/04/21 03:43:53;;;;;;;13.68;4.13;;;;;;;7.22;86.39;100591.13;5027582;28;20032;-80
2022/04/21 03:46:20;;;;;;;9.98;4.40;;;;;;;7.21;86.91;100594.66;5042265;28;20056;-79
2022/04/21 03:48:47;;;;;;;11.50;4.72;;;;;;;7.18;87.37;100589.56;5040894;28;20497;-78
2022/04/21 03:51:15;;;;;;;21.08;4.97;;;;;;;7.16;87.31;100594.00;5076537;28;20060;-81
2022/04/21 03:53:42;;;;;;;14.07;4.28;;;;;;;7.15;87.41;100598.38;5057948;28;20048;-80
2022/04/21 03:56:09;;;;;;;11.85;3.70;;;;;;;7.10;88.05;100600.38;5059615;28;20064;-80
2022/04/21 03:58:36;;;;;;;7.78;4.13;;;;;;;7.16;87.84;100604.47;5054927;28;20051;-79
2022/04/21 04:01:04;;;;;;;11.23;4.15;;;;;;;7.15;87.99;100602.78;5021691;28;20048;-79
2022/04/21 04:03:31;;;;;;;10.77;4.18;;;;;;;7.20;87.81;100608.66;5044760;28;20107;-79
2022/04/21 04:05:58;;;;;;;14.43;4.13;;;;;;;7.20;87.96;100601.66;5068819;28;20052;-79
2022/04/21 04:11:12;;;;;;;;;;;;;;;7.17;88.69;100609.66;5061716;28;20059;-80
2022/04/21 04:13:39;;;;;;;10.32;4.47;;;;;;;7.19;88.39;100610.44;5064546;28;19988;-78
2022/04/21 04:16:09;;;;;;;12.30;4.38;;;;;;;7.26;88.15;100613.63;5045278;28;20063;-79
2022/04/21 04:18:36;;;;;;;12.10;4.38;;;;;;;7.22;88.06;100618.16;5061753;28;20056;-78
2022/04/21 04:21:04;;;;;;;11.70;4.07;;;;;;;7.21;88.45;100611.22;5054568;28;20061;-79
2022/04/21 04:23:32;;;;;;;13.57;4.82;;;;;;;7.22;88.25;100610.28;5058499;28;20136;-79
2022/04/21 04:25:59;;;;;;;11.27;4.45;;;;;;;7.23;88.52;100613.75;5044144;28;20045;-80
2022/04/21 04:28:26;;;;;;;14.45;5.82;;;;;;;7.26;88.68;100617.09;5061669;28;20061;-80
2022/04/21 04:30:54;;;;;;;14.02;4.95;;;;;;;7.24;88.93;100608.44;5036156;28;20147;-80
2022/04/21 04:33:22;;;;;;;15.38;4.90;;;;;;;7.23;89.12;100608.53;5029731;28;20063;-80
2022/04/21 04:35:49;;;;;;;11.65;4.40;;;;;;;7.27;88.85;100607.47;5040282;28;20549;-80
2022/04/21 04:38:16;;;;;;;8.02;3.88;;;;;;;7.25;89.07;100601.44;5059600;28;20052;-80
2022/04/21 04:40:44;;;;;;;17.42;4.43;;;;;;;7.23;89.36;100604.13;5065122;28;20056;-80
2022/04/21 04:43:11;;;;;;;11.40;4.80;;;;;;;7.27;89.55;100616.16;5060375;28;20041;-79
2022/04/21 04:48:24;;;;;;;14.80;5.18;;;;;;;7.22;90.28;100619.94;5074651;28;20059;-79
2022/04/21 04:50:52;;;;;;;7.00;3.88;;;;;;;7.27;90.54;100617.94;5043766;28;20056;-81
2022/04/21 04:53:19;;;;;;;14.38;5.53;;;;;;;7.26;90.61;100622.34;5067774;28;20113;-79
2022/04/21 04:55:46;;;;;;;18.85;5.47;;;;;;;7.25;90.92;100623.25;5064720;28;20033;-80
2022/04/21 04:58:14;;;;;;;13.52;4.75;;;;;;;7.31;90.66;100616.88;5067670;28;20059;-80
2022/04/21 05:00:42;;;;;;;13.32;4.78;;;;;;;7.32;90.36;100622.03;5055210;28;20305;-78
2022/04/21 05:03:09;;;;;;;13.88;5.03;;;;;;;7.35;90.64;100628.94;5046816;28;20115;-79
2022/04/21 05:05:36;;;;;;;14.98;5.28;;;;;;;7.35;90.79;100623.69;5034896;28;20136;-78
2022/04/21 05:08:06;;;;;;;14.55;4.65;;;;;;;7.41;90.64;100639.13;5085443;28;20056;-79
2022/04/21 05:10:33;;;;;;;12.88;4.40;;;;;;;7.42;90.65;100639.97;5075206;28;20304;-81
2022/04/21 05:13:00;;;;;;;13.35;5.25;;;;;;;7.43;90.96;100642.53;5072951;28;20052;-80
2022/04/21 05:15:28;;;;;;;8.68;4.07;;;;;;;7.48;90.49;100644.94;5033270;28;20136;-79
2022/04/21 05:17:55;;;;;;;13.27;4.40;;;;;;;7.43;90.73;100633.78;5076323;28;20051;-79
2022/04/21 05:20:26;;;;;;;12.20;4.90;;;;;;;7.42;90.84;100634.72;5062142;28;20045;-78
2022/04/21 05:23:02;;;;;;;12.30;4.82;;;;;;;7.45;90.96;100642.44;5063986;28;20045;-78
2022/04/21 05:25:31;;;;;;;13.45;5.20;;;;;;;7.45;90.84;100640.69;5061253;28;20044;-79
2022/04/21 05:27:59;;;;;;;15.93;4.32;;;;;;;7.42;91.04;100646.03;5062394;28;20134;-79
2022/04/21 05:33:14;;;;;;;11.32;4.63;;;;;;;7.46;90.77;100650.22;5063381;28;20048;-79
2022/04/21 05:35:42;;;;;;;16.48;5.20;;;;;;;7.48;90.83;100648.41;5026162;28;20332;-79
2022/04/21 05:38:10;;;;;;;15.40;5.38;;;;;;;7.51;91.16;100644.78;5053145;28;20063;-79
2022/04/21 05:40:37;;;;;;;20.40;5.10;;;;;;;7.51;91.12;100653.47;5043743;28;20148;-79
2022/04/21 05:43:08;;;;;;;20.90;6.53;;;;;;;7.50;91.44;100643.09;5049836;28;20048;-79
2022/04/21 05:45:35;;;;;;;25.48;6.15;;;;;;;7.54;91.43;100640.25;5037323;28;20112;-79
2022/04/21 05:48:03;;;;;;;11.65;5.00;;;;;;;7.59;91.10;100640.03;5069722;28;20082;-79
2022/04/21 05:50:31;;;;;;;11.02;5.97;;;;;;;7.61;91.27;100636.44;5050666;28;20526;-79
2022/04/21 05:53:01;;;;;;;15.57;6.00;;;;;;;7.64;91.49;100631.97;5052768;28;20116;-79
2022/04/21 05:55:29;;;;;;;16.38;4.65;;;;;;;7.75;90.84;100633.19;5043998;28;20204;-80
2022/04/21 05:58:00;;;;;;;17.10;5.97;;;;;;;7.76;90.73;100624.38;5046083;28;20437;-80
2022/04/21 06:00:27;;;;;;;11.77;4.97;;;;;;;7.78;90.35;100637.41;5039620;28;20518;-78
2022/04/21 06:02:54;;;;;;;12.50;5.28;;;;;;;7.84;90.20;100630.13;5060252;28;20112;-79
2022/04/21 06:09:35;;;;;;;14.95;5.72;;;;;;;7.74;90.25;100634.06;5077008;28;20043;-80
2022/04/21 06:12:03;;;;;;;15.23;5.10;;;;;;;7.83;89.84;100624.94;5043678;28;20060;-80
2022/04/21 06:14:30;;;;;;;16.95;5.65;;;;;;;7.87;89.56;100624.72;5041092;28;20048;-80
2022/04/21 06:16:59;;;;;;;10.65;4.88;;;;;;;7.91;89.06;100621.94;5079654;28;20109;-80
2022/04/21 06:19:26;;;;;;;16.95;5.03;;;;;;;8.03;88.64;100619.59;5052179;28;20041;-80
2022/04/21 06:21:53;;;;;;;19.35;5.70;;;;;;;8.05;88.33;100616.88;5060754;28;20545;-80
2022/04/21 06:24:20;;;;;;;13.63;4.85;;;;;;;8.07;88.14;100608.03;5044840;28;20050;-81
2022/04/21 06:26:48;;;;;;;11.82;4.90;;;;;;;8.26;87.79;100615.00;5065505;28;20053;-80
2022/04/21 06:29:17;;;;;;;11.50;4.72;;;;;;;8.41;87.24;100610.78;5056767;28;20052;-81
2022/04/21 06:31:45;;;;;;;18.88;4.72;;;;;;;8.57;85.84;100612.56;5058111;28;20116;-80
2022/04/21 06:34:12;;;;;;;10.68;4.53;;;;;;;8.62;85.38;100609.72;5055692;28;20057;-80
2022/04/21 06:36:40;;;;;;;14.55;5.03;;;;;;;8.81;85.05;100607.81;5041798;28;20055;-80
2022/04/21 06:39:07;;;;;;;17.92;4.72;;;;;;;8.90;83.95;100608.28;5062919;28;20067;-80
2022/04/21 06:41:34;;;;;;;16.50;5.43;;;;;;;9.00;82.95;100605.09;5071993;28;20060;-80
2022/04/21 06:49:34;;;;;;;13.68;4.78;;;;;;;9.20;82.00;100611.09;5059007;28;20052;-80
2022/04/21 06:52:02;;;;;;;13.43;4.32;;;;;;;9.30;81.26;100609.66;5053250;28;20041;-80
2022/04/21 06:54:30;;;;;;;11.43;4.80;;;;;;;9.36;81.07;100618.03;5050330;28;20087;-80
2022/04/21 06:56:57;;;;;;;10.55;4.13;;;;;;;9.42;81.61;100624.75;5030816;28;20070;-80
2022/04/21 06:59:25;;;;;;;9.65;4.45;;;;;;;9.46;80.50;100628.91;5059884;28;20056;-80
2022/04/21 07:01:52;;;;;;;9.38;4.60;;;;;;;9.50;79.82;100622.56;5065630;28;20133;-80
2022/04/21 07:04:20;;;;;;;14.35;4.95;;;;;;;9.68;79.19;100628.59;5031184;28;20136;-81
2022/04/21 07:06:47;;;;;;;10.93;4.65;;;;;;;9.78;78.89;100632.41;5044158;28;20089;-80
2022/04/21 07:09:15;;;;;;;17.30;5.22;;;;;;;9.78;78.43;100637.66;5045866;28;20060;-80
2022/04/21 07:11:43;;;;;;;14.35;4.60;;;;;;;9.86;78.08;100642.47;5062156;28;20083;-81
2022/04/21 07:14:11;;;;;;;8.32;4.15;;;;;;;9.80;78.15;100640.19;5057264;28;20120;-81
2022/04/21 07:16:38;;;;;;;11.57;4.60;;;;;;;9.75;78.14;100642.25;5056827;28;20045;-82
2022/04/21 07:19:05;;;;;;;13.35;4.45;;;;;;;9.73;78.58;100646.75;5044587;28;20072;-80
2022/04/21 07:21:32;;;;;;;8.43;4.00;;;;;;;9.67;78.38;100647.91;5058244;28;20052;-81
2022/04/21 07:24:00;;;;;;;11.32;4.60;;;;;;;9.71;78.19;100643.34;5044934;28;20059;-80
2022/04/21 07:26:28;;;;;;;13.05;4.35;;;;;;;9.72;78.09;100648.50;5054000;28;20052;-80
2022/04/21 07:28:57;;;;;;;12.68;5.22;;;;;;;9.66;78.26;100646.22;5042093;28;20073;-80
2022/04/21 07:31:24;;;;;;;9.70;4.55;;;;;;;9.73;78.65;100649.38;5044832;28;20046;-81
2022/04/21 07:33:52;;;;;;;12.07;4.82;;;;;;;9.67;78.70;100661.06;5025683;28;20068;-80
2022/04/21 07:36:20;;;;;;;12.85;4.60;;;;;;;9.59;79.18;100650.97;5037323;28;20059;-80
2022/04/21 07:38:49;;;;;;;15.60;4.22;;;;;;;9.56;79.78;100656.38;5058974;28;20449;-80
2022/04/21 07:41:17;;;;;;;20.45;5.40;;;;;;;9.53;79.54;100655.69;5034160;28;20063;-81
2022/04/21 07:43:45;;;;;;;13.95;5.32;;;;;;;9.48;80.10;100655.09;5036907;28;20888;-80
2022/04/21 07:46:14;;;;;;;12.80;4.95;;;;;;;9.44;80.13;100650.94;5041734;28;20052;-81
2022/04/21 07:51:27;;;;;;;12.00;4.85;;;;;;;9.50;80.54;100647.97;5074142;28;20377;-81
2022/04/21 07:53:54;;;;;;;17.45;5.10;;;;;;;9.58;80.04;100653.66;5026362;28;20057;-80
2022/04/21 07:56:22;;;;;;;11.73;4.72;;;;;;;9.64;80.04;100663.88;5055530;28;20463;-80
2022/04/21 07:58:49;;;;;;;9.43;5.07;;;;;;;9.63;79.71;100659.50;5041029;28;20045;-80
2022/04/21 08:01:16;;;;;;;13.95;5.03;;;;;;;9.55;80.62;100662.59;5042506;28;20071;-81
2022/04/21 08:03:43;;;;;;;10.90;5.28;;;;;;;9.56;80.71;100661.66;5058049;28;20082;-81
2022/04/21 08:06:12;;;;;;;11.63;6.00;;;;;;;9.61;80.97;100659.63;5043198;28;20048;-80
2022/04/21 08:08:40;;;;;;;10.05;4.43;;;;;;;9.67;80.29;100671.56;5042275;28;20131;-80
2022/04/21 08:11:08;;;;;;;10.80;4.60;;;;;;;9.59;81.27;100666.75;5075808;28;20068;-80
2022/04/21 08:13:35;;;;;;;11.80;5.18;;;;;;;9.62;80.77;100661.31;5045046;28;20067;-81
2022/04/21 08:16:02;;;;;;;8.25;4.05;;;;;;;9.74;80.78;100664.22;5058814;28;20490;-81
2022/04/21 08:18:29;;;;;;;11.70;5.03;;;;;;;9.85;80.14;100667.09;5038341;28;20064;-79
2022/04/21 08:20:58;;;;;;;11.80;5.35;;;;;;;10.01;80.03;100674.97;5041212;28;20121;-79
2022/04/21 08:23:46;;;;;;;13.88;5.10;;;;;;;10.16;80.41;100668.84;5072433;28;20599;-80
2022/04/21 08:34:44;;;;;;;14.82;5.75;;;;;;;10.94;79.92;100668.75;5079822;28;20326;-79
2022/04/21 08:37:12;;;;;;;13.88;5.15;;;;;;;11.16;80.31;100670.00;5045696;28;20136;-79
2022/04/21 08:39:39;;;;;;;14.23;5.43;;;;;;;11.46;79.32;100671.72;5061234;28;20059;-80
2022/04/21 08:42:10;;;;;;;14.60;5.40;;;;;;;11.64;77.94;100670.56;5064967;28;20133;-80
2022/04/21 08:44:41;;;;;;;13.63;5.00;;;;;;;11.83;77.02;100667.66;5032017;28;20431;-80
2022/04/21 08:47:10;;;;;;;13.82;5.18;;;;;;;11.97;76.09;100672.03;5082520;28;20041;-80
2022/04/21 08:49:39;;;;;;;12.48;5.72;;;;;;;12.23;75.10;100670.38;5064543;28;20147;-80
2022/04/21 08:52:07;;;;;;;16.60;6.00;;;;;;;12.20;74.25;100669.72;5066089;28;20079;-80
2022/04/21 08:54:35;;;;;;;13.30;5.28;;;;;;;12.32;74.22;100663.66;5033150;28;20118;-80
2022/04/21 08:57:04;;;;;;;12.45;5.18;;;;;;;12.26;73.85;100669.34;5050533;28;20052;-80
2022/04/21 08:59:32;;;;;;;13.05;5.05;;;;;;;12.31;74.01;100670.72;5061624;28;20072;-80
2022/04/21 09:02:00;;;;;;;14.63;5.50;;;;;;;12.35;72.84;100672.22;5051414;28;20053;-79
2022/04/21 09:04:30;;;;;;;11.10;5.60;;;;;;;12.37;72.36;100667.66;5052208;28;20166;-78
2022/04/21 09:07:17;;;;;;;10.85;5.20;;;;;;;12.56;71.69;100669.09;5048055;28;20053;-79
2022/04/21 09:10:01;;;;;;;10.35;5.30;;;;;;;12.73;71.31;100662.69;5064564;28;20064;-79
2022/04/21 09:12:28;;;;;;;9.18;5.65;;;;;;;12.84;70.18;100660.19;5082661;28;20125;-79
2022/04/21 09:14:57;;;;;;;10.80;4.85;;;;;;;12.82;71.53;100672.63;5064793;28;20071;-81
2022/04/21 09:17:24;;;;;;;11.63;5.63;;;;;;;12.85;69.83;100660.06;5043102;28;20060;-79
2022/04/21 09:19:59;;;;;;;15.38;4.97;;;;;;;12.88;69.65;100656.38;5054698;28;20053;-80
2022/04/21 09:22:33;;;;;;;11.52;5.30;;;;;;;12.90;69.97;100657.13;5038107;28;20055;-80
2022/04/21 09:25:00;;;;;;;11.43;6.20;;;;;;;13.13;70.11;100653.72;5048819;28;20103;-80
2022/04/21 09:27:39;;;;;;;15.43;6.05;;;;;;;13.08;69.26;100661.13;5047656;28;20093;-81
2022/04/21 09:30:13;;;;;;;10.73;5.28;;;;;;;12.97;69.18;100665.44;5059669;28;20057;-81
2022/04/21 09:32:51;;;;;;;10.77;5.95;;;;;;;13.12;69.04;100662.63;5052590;28;20055;-81
2022/04/21 09:35:19;;;;;;;9.30;5.57;;;;;;;13.06;68.69;100668.34;5070275;28;20471;-81
2022/04/21 09:37:48;;;;;;;8.65;5.03;;;;;;;13.01;68.11;100666.94;5045661;28;20465;-81
2022/04/21 09:40:21;;;;;;;9.23;4.75;;;;;;;13.00;69.33;100666.09;5061995;28;20061;-82
2022/04/21 09:42:59;;;;;;;11.77;4.80;;;;;;;12.77;69.33;100667.66;5067746;28;20087;-80
2022/04/21 09:48:22;;;;;;;16.13;6.00;;;;;;;12.82;69.16;100680.56;5057908;28;20048;-80
2022/04/21 09:50:53;;;;;;;16.08;6.45;;;;;;;12.81;69.37;100679.72;5059950;28;20102;-81
2022/04/21 09:53:23;;;;;;;17.58;6.80;;;;;;;12.72;69.44;100684.78;5066389;28;20045;-80
2022/04/21 09:55:52;;;;;;;15.10;6.38;;;;;;;12.83;69.80;100683.13;5054506;28;20057;-81
2022/04/21 09:58:19;;;;;;;11.20;6.70;;;;;;;12.94;69.22;100682.38;5046314;28;20045;-81
2022/04/21 10:00:47;;;;;;;14.15;7.38;;;;;;;12.91;68.90;100685.22;5047641;28;20078;-81
2022/04/21 10:03:14;;;;;;;13.80;7.47;;;;;;;12.84;69.33;100683.97;5060377;28;20518;-81
2022/04/21 10:05:41;;;;;;;11.27;6.93;;;;;;;12.75;69.71;100681.94;5057472;28;20059;-81
2022/04/21 10:08:10;;;;;;;12.43;7.47;;;;;;;12.73;69.99;100679.38;5063912;28;20131;-81
2022/04/21 10:10:45;;;;;;;16.77;7.35;;;;;;;12.62;70.24;100687.19;5050909;28;20049;-81
2022/04/21 10:13:12;;;;;;;11.63;7.45;;;;;;;12.56;70.35;100690.22;5065638;28;20044;-81
2022/04/21 10:15:39;;;;;;;15.68;7.90;;;;;;;12.35;70.74;100688.06;5059009;28;20138;-80
2022/04/21 10:18:07;;;;;;;17.40;8.27;;;;;;;12.18;71.90;100696.22;5057448;28;20116;-80
2022/04/21 10:20:34;;;;;;;15.52;7.47;;;;;;;12.12;71.82;100696.63;5033316;28;20517;-81
2022/04/21 10:23:02;;;;;;;14.23;8.40;;;;;;;12.02;72.44;100685.81;5047861;28;20032;-81
2022/04/21 10:25:37;;;;;;;20.20;8.05;;;;;;;12.07;72.68;100686.38;5055673;28;20048;-80
2022/04/21 10:28:39;;;;;;;15.35;8.18;;;;;;;12.01;72.72;100686.72;5053086;28;20041;-80
2022/04/21 10:31:25;;;;;;;12.73;7.78;;;;;;;12.01;72.16;100694.66;5061710;28;20045;-80
2022/04/21 10:33:53;;;;;;;17.45;7.43;;;;;;;11.99;72.72;100683.38;5066023;28;20120;-80
2022/04/21 10:36:42;;;;;;;13.45;8.30;;;;;;;12.05;72.20;100687.41;5041870;28;20112;-81
2022/04/21 10:39:18;;;;;;;11.80;7.65;;;;;;;12.10;72.23;100694.06;5031633;28;20553;-80
2022/04/21 10:41:45;;;;;;;17.95;7.90;;;;;;;12.38;71.32;100690.50;5066578;28;20059;-80
2022/04/21 10:44:14;;;;;;;16.15;7.50;;;;;;;12.57;70.52;100686.66;5078456;28;20045;-80
2022/04/21 10:46:42;;;;;;;16.52;7.50;;;;;;;12.72;69.82;100693.53;5049734;28;20076;-80
2022/04/21 10:49:57;;;;;;;11.77;7.03;;;;;;;12.71;69.82;100681.28;5038045;28;20041;-79
2022/04/21 10:57:48;;;;;;;12.75;7.03;;;;;;;12.95;68.84;100680.59;5078784;28;20060;-80
2022/04/21 11:00:30;;;;;;;13.73;6.65;;;;;;;12.90;69.25;100679.09;5057703;28;20041;-80
2022/04/21 11:03:03;;;;;;;14.18;6.45;;;;;;;13.07;68.31;100675.31;5047251;28;20082;-80
2022/04/21 11:05:33;;;;;;;14.20;7.85;;;;;;;13.35;68.02;100679.56;5036352;28;20041;-80
2022/04/21 11:08:02;;;;;;;11.75;7.18;;;;;;;13.65;65.96;100683.66;5076207;28;20049;-80
2022/04/21 11:10:38;;;;;;;14.65;6.88;;;;;;;13.94;65.20;100677.13;5060331;28;20049;-80
2022/04/21 11:13:08;;;;;;;13.95;6.95;;;;;;;14.38;63.83;100675.69;5044172;28;20144;-81
2022/04/21 11:15:49;;;;;;;14.13;7.18;;;;;;;15.04;61.34;100676.06;5036864;28;20112;-81
2022/04/21 11:18:21;;;;;;;12.68;6.50;;;;;;;15.08;61.13;100674.84;5037881;28;20072;-80
2022/04/21 11:20:51;;;;;;;11.95;6.30;;;;;;;15.01;60.48;100676.28;5058598;28;20098;-80
2022/04/21 11:23:45;;;;;;;12.45;6.45;;;;;;;14.90;60.67;100676.25;5027891;28;20129;-81
2022/04/21 11:26:12;;;;;;;18.30;7.35;;;;;;;14.83;60.91;100672.38;5074596;28;20036;-81
2022/04/21 11:28:44;;;;;;;12.07;6.65;;;;;;;14.97;61.02;100666.03;5058285;28;20065;-81
2022/04/21 11:31:12;;;;;;;14.50;6.43;;;;;;;15.23;59.95;100667.53;5055673;28;20156;-80
2022/04/21 11:33:39;;;;;;;11.90;5.55;;;;;;;15.36;58.93;100664.75;5050206;28;20470;-80
2022/04/21 11:36:12;;;;;;;9.50;5.28;;;;;;;15.32;59.36;100663.31;5053345;28;20063;-80
2022/04/21 11:38:44;;;;;;;13.35;6.00;;;;;;;15.22;59.28;100670.28;5045573;28;20092;-80
2022/04/21 11:41:13;;;;;;;11.93;6.47;;;;;;;15.01;59.93;100670.16;5045497;28;20046;-81
2022/04/21 11:43:47;;;;;;;17.17;6.72;;;;;;;14.74;60.87;100676.56;5058296;28;20084;-79
2022/04/21 11:46:18;;;;;;;12.52;5.82;;;;;;;14.46;61.72;100669.00;5025075;28;20045;-80
2022/04/21 11:48:45;;;;;;;11.85;5.25;;;;;;;14.07;63.09;100673.59;5051462;28;20065;-80
2022/04/21 11:51:24;;;;;;;13.15;5.65;;;;;;;13.77;64.47;100671.34;5057793;28;20048;-79
2022/04/21 11:53:52;;;;;;;9.73;5.97;;;;;;;13.68;64.68;100668.41;5048531;28;20128;-81
2022/04/21 11:56:21;;;;;;;8.13;4.82;;;;;;;13.45;66.33;100671.84;5044498;28;20041;-80
2022/04/21 11:58:49;;;;;;;12.27;6.15;;;;;;;13.34;66.82;100666.47;5078486;28;20301;-80
2022/04/21 12:06:58;;;;;;;11.20;6.30;;;;;;;13.65;66.60;100660.69;5044857;28;20346;-79
2022/04/21 12:09:27;;;;;;;12.10;6.45;;;;;;;13.79;66.16;100659.72;5056956;28;20082;-80
2022/04/21 12:11:56;;;;;;;11.68;5.72;;;;;;;13.86;66.31;100665.41;5043461;28;20383;-80
2022/04/21 12:14:24;;;;;;;8.98;5.50;;;;;;;14.11;65.56;100673.25;5055933;28;20050;-80
2022/04/21 12:16:55;;;;;;;9.15;5.55;;;;;;;14.28;64.64;100671.19;5059712;28;20060;-79
2022/04/21 12:19:32;;;;;;;11.50;6.03;;;;;;;14.40;64.86;100663.16;5055665;28;20045;-80
2022/04/21 12:22:03;;;;;;;9.25;5.50;;;;;;;14.44;64.60;100669.91;5040136;28;20080;-79
2022/04/21 12:24:38;;;;;;;9.07;4.60;;;;;;;14.64;64.05;100670.28;5048556;28;20082;-78
2022/04/21 12:27:11;;;;;;;8.23;5.28;;;;;;;14.61;63.79;100665.22;5055537;28;20117;-79
2022/04/21 12:29:51;;;;;;;9.20;4.88;;;;;;;14.40;64.52;100667.63;5065502;28;20057;-80
2022/04/21 12:32:24;;;;;;;6.85;4.68;;;;;;;14.19;64.83;100659.47;5016607;28;20130;-79
2022/04/21 12:34:54;;;;;;;5.25;4.68;;;;;;;13.86;66.64;100668.88;5074894;28;20057;-80
2022/04/21 12:37:25;;;;;;;11.40;4.82;;;;;;;13.62;67.41;100671.50;5059841;28;20048;-81